createdAt,value
2023-02-20T00:02:58.725Z,99425.25
2023-02-20T00:08:01.836Z,99419.74
2023-02-20T00:13:06.270Z,99413.91
2023-02-20T00:18:08.952Z,99404.02
2023-02-20T00:23:11.357Z,99405.37
2023-02-20T00:28:13.423Z,99411.09
2023-02-20T00:33:16.005Z,99417.30
2023-02-20T00:38:19.932Z,99418.34
2023-02-20T00:43:22.366Z,99419.69
2023-02-20T00:48:29.965Z,99422.60
2023-02-20T00:53:52.824Z,99421.98
2023-02-20T00:58:55.113Z,99423.11
2023-02-20T01:03:57.542Z,99425.00
2023-02-20T01:08:59.935Z,99430.27
2023-02-20T01:14:02.088Z,99431.73
2023-02-20T01:19:05.753Z,99425.66
2023-02-20T01:24:10.685Z,99411.02
2023-02-20T01:29:13.618Z,99406.63
2023-02-20T01:34:19.951Z,99402.40
2023-02-20T01:39:26.687Z,99393.76
2023-02-20T01:44:33.867Z,99389.41
2023-02-20T01:49:56.641Z,99387.73
2023-02-20T01:55:05.281Z,99380.65
2023-02-20T02:00:14.478Z,99366.27
2023-02-20T02:05:21.685Z,99353.19
2023-02-20T02:10:35.407Z,99338.13
2023-02-20T02:15:37.977Z,99333.27
2023-02-20T02:21:04.280Z,99329.92
2023-02-20T02:26:19.854Z,99323.13
2023-02-20T02:31:28.725Z,99322.63
2023-02-20T02:37:03.533Z,99321.41
2023-02-20T02:42:24.052Z,99308.75
2023-02-20T02:47:44.621Z,99308.69
2023-02-20T02:52:49.960Z,99302.90
2023-02-20T02:57:55.539Z,99296.91
2023-02-20T03:03:19.195Z,99306.33
2023-02-20T03:08:37.560Z,99306.06
2023-02-20T03:14:05.185Z,99298.32
2023-02-20T03:19:13.974Z,99297.64
2023-02-20T03:24:19.921Z,99285.91
2023-02-20T03:29:37.033Z,99277.58
2023-02-20T03:35:04.906Z,99273.23
2023-02-20T03:40:30.736Z,99259.02
2023-02-20T03:45:37.933Z,99268.91
2023-02-20T03:50:41.522Z,99271.02
2023-02-20T03:55:47.052Z,99288.17
2023-02-20T04:00:55.847Z,99297.95
2023-02-20T04:06:02.897Z,99296.89
2023-02-20T04:11:18.570Z,99271.47
2023-02-20T04:16:22.873Z,99262.25
2023-02-20T04:21:35.924Z,99252.20
2023-02-20T04:26:39.419Z,99261.59
2023-02-20T04:31:42.593Z,99270.42
2023-02-20T04:36:48.596Z,99262.50
2023-02-20T04:41:51.587Z,99254.07
2023-02-20T04:46:57.302Z,99242.93
2023-02-20T04:52:02.700Z,99230.30
2023-02-20T04:57:08.517Z,99228.42
2023-02-20T05:02:11.544Z,99232.32
2023-02-20T05:07:13.673Z,99220.17
2023-02-20T05:12:15.626Z,99207.77
2023-02-20T05:17:18.498Z,99195.60
2023-02-20T05:22:22.858Z,99193.65
2023-02-20T05:27:26.093Z,99210.22
2023-02-20T05:32:30.517Z,99221.42
2023-02-20T05:37:33.837Z,99224.81
2023-02-20T05:42:37.858Z,99225.95
2023-02-20T05:47:40.619Z,99205.60
2023-02-20T05:52:43.221Z,99204.51
2023-02-20T05:57:45.617Z,99208.81
2023-02-20T06:02:47.747Z,99207.23
2023-02-20T06:07:50.689Z,99211.01
2023-02-20T06:12:53.066Z,99216.38
2023-02-20T06:17:55.822Z,99210.39
2023-02-20T06:22:57.781Z,99201.16
2023-02-20T06:27:59.854Z,99207.78
2023-02-20T06:33:02.545Z,99214.46
2023-02-20T06:38:04.977Z,99217.10
2023-02-20T06:43:07.272Z,99230.40
2023-02-20T06:48:09.854Z,99224.15
2023-02-20T06:53:12.202Z,99212.52
2023-02-20T06:58:14.933Z,99216.45
2023-02-20T07:03:17.102Z,99215.37
2023-02-20T07:08:19.898Z,99213.92
2023-02-20T07:13:22.852Z,99212.42
2023-02-20T07:18:27.263Z,99206.77
2023-02-20T07:23:29.959Z,99197.64
2023-02-20T07:28:36.084Z,99196.47
2023-02-20T07:33:42.958Z,99194.89
2023-02-20T07:38:57.033Z,99189.77
2023-02-20T07:43:59.569Z,99181.14
2023-02-20T07:49:06.296Z,99174.36
2023-02-20T07:54:14.962Z,99160.70
2023-02-20T07:59:20.622Z,99149.08
2023-02-20T08:04:23.233Z,99139.30
2023-02-20T08:09:28.173Z,99135.77
2023-02-20T08:14:36.037Z,99137.02
2023-02-20T08:19:38.681Z,99128.13
2023-02-20T08:24:42.558Z,99131.52
2023-02-20T08:29:46.562Z,99128.71
2023-02-20T08:35:20.237Z,99127.17
2023-02-20T08:40:22.841Z,99106.01
2023-02-20T08:45:25.676Z,99108.80
2023-02-20T08:50:31.149Z,99103.11
2023-02-20T08:55:33.171Z,99092.80
2023-02-20T09:00:35.845Z,99080.92
2023-02-20T09:05:39.482Z,99061.48
2023-02-20T09:10:44.682Z,99052.55
2023-02-20T09:15:47.194Z,99049.46
2023-02-20T09:20:51.097Z,99042.39
2023-02-20T09:25:55.729Z,99037.96
2023-02-20T09:31:00.507Z,99030.64
2023-02-20T09:36:02.652Z,99024.33
2023-02-20T09:41:05.255Z,99016.40
2023-02-20T09:46:19.901Z,99014.39
2023-02-20T09:51:27.607Z,99005.77
2023-02-20T09:56:35.460Z,98996.00
2023-02-20T10:01:43.898Z,98990.34
2023-02-20T10:06:50.503Z,98991.77
2023-02-20T10:12:20.855Z,98992.86
2023-02-20T10:17:32.143Z,98974.64
2023-02-20T10:23:33.745Z,98953.07
2023-02-20T10:28:39.619Z,98929.52
2023-02-20T10:33:50.183Z,98928.14
2023-02-20T10:39:10.525Z,98917.90
2023-02-20T10:44:25.959Z,98919.74
2023-02-20T10:49:42.278Z,98903.98
2023-02-20T10:54:50.319Z,98885.03
2023-02-20T11:00:05.000Z,98877.57
2023-02-20T11:05:18.171Z,98858.94
2023-02-20T11:10:30.725Z,98849.23
2023-02-20T11:15:34.789Z,98841.36
2023-02-20T11:20:42.404Z,98826.38
2023-02-20T11:25:50.552Z,98815.29
2023-02-20T11:31:06.989Z,98802.63
2023-02-20T11:36:20.076Z,98772.55
2023-02-20T11:41:36.426Z,98757.94
2023-02-20T11:46:39.812Z,98751.30
2023-02-20T11:51:48.442Z,98734.48
2023-02-20T11:57:03.123Z,98719.45
2023-02-20T12:02:24.642Z,98707.17
2023-02-20T12:07:35.993Z,98685.16
2023-02-20T12:12:38.364Z,98665.27
2023-02-20T12:18:35.494Z,98661.70
2023-02-20T12:23:51.278Z,98659.12
2023-02-20T12:29:13.241Z,98633.78
2023-02-20T12:35:10.416Z,98626.02
2023-02-20T12:40:53.179Z,98622.89
2023-02-20T12:46:23.514Z,98617.09
2023-02-20T12:51:50.741Z,98605.58
2023-02-20T12:57:30.005Z,98593.46
2023-02-20T13:02:46.983Z,98597.69
2023-02-20T13:08:02.043Z,98594.27
2023-02-20T13:13:10.434Z,98583.14
2023-02-20T13:18:27.807Z,98578.61
2023-02-20T13:23:36.429Z,98553.91
2023-02-20T13:28:48.202Z,98556.73
2023-02-20T13:34:13.568Z,98530.99
2023-02-20T13:39:25.901Z,98529.46
2023-02-20T13:44:37.486Z,98517.23
2023-02-20T13:50:26.067Z,98491.58
2023-02-20T13:55:29.243Z,98464.06
2023-02-20T14:00:51.396Z,98444.43
2023-02-20T14:06:06.386Z,98421.27
2023-02-20T14:11:15.516Z,98415.59
2023-02-20T14:16:31.556Z,98379.09
2023-02-20T14:21:36.516Z,98364.71
2023-02-20T14:26:44.967Z,98374.36
2023-02-20T14:31:51.420Z,98377.55
2023-02-20T14:37:18.125Z,98363.08
2023-02-20T14:42:24.654Z,98355.95
2023-02-20T14:47:30.692Z,98358.88
2023-02-20T14:52:32.742Z,98352.31
2023-02-20T14:57:37.274Z,98353.89
2023-02-20T15:02:43.633Z,98346.10
2023-02-20T15:07:46.774Z,98336.88
2023-02-20T15:12:58.951Z,98322.55
2023-02-20T15:18:17.767Z,98331.81
2023-02-20T15:23:36.724Z,98330.32
2023-02-20T15:28:39.632Z,98324.61
2023-02-20T15:33:49.058Z,98325.06
2023-02-20T15:38:59.230Z,98327.80
2023-02-20T15:44:03.493Z,98330.55
2023-02-20T15:49:15.761Z,98337.75
2023-02-20T15:54:21.556Z,98331.67
2023-02-20T15:59:24.932Z,98337.83
2023-02-20T16:04:27.372Z,98329.31
2023-02-20T16:09:30.245Z,98326.11
2023-02-20T16:14:37.556Z,98324.65
2023-02-20T16:19:43.208Z,98335.79
2023-02-20T16:24:54.834Z,98343.42
2023-02-20T16:29:59.698Z,98354.94
2023-02-20T16:35:02.500Z,98362.92
2023-02-20T16:40:05.921Z,98372.72
2023-02-20T16:45:17.786Z,98374.65
2023-02-20T16:50:23.771Z,98376.02
2023-02-20T16:55:36.547Z,98377.13
2023-02-20T17:00:50.959Z,98371.77
2023-02-20T17:06:00.028Z,98375.48
2023-02-20T17:11:02.537Z,98375.29
2023-02-20T17:16:05.027Z,98376.36
2023-02-20T17:21:09.458Z,98380.67
2023-02-20T17:26:13.809Z,98380.05
2023-02-20T17:31:17.236Z,98378.35
2023-02-20T17:36:19.326Z,98383.88
2023-02-20T17:41:22.235Z,98388.09
2023-02-20T17:46:25.238Z,98397.12
2023-02-20T17:51:27.685Z,98394.33
2023-02-20T17:56:29.717Z,98397.85
2023-02-20T18:01:32.029Z,98390.80
2023-02-20T18:06:36.476Z,98397.36
2023-02-20T18:11:39.246Z,98394.48
2023-02-20T18:16:42.831Z,98391.84
2023-02-20T18:21:49.383Z,98403.17
2023-02-20T18:26:53.101Z,98400.18
2023-02-20T18:31:58.916Z,98399.39
2023-02-20T18:37:02.110Z,98397.45
2023-02-20T18:42:04.829Z,98392.48
2023-02-20T18:47:09.315Z,98392.87
2023-02-20T18:52:11.754Z,98388.41
2023-02-20T18:57:14.433Z,98381.72
2023-02-20T19:02:17.084Z,98379.54
2023-02-20T19:07:19.369Z,98382.09
2023-02-20T19:12:21.723Z,98379.77
2023-02-20T19:17:23.659Z,98391.86
2023-02-20T19:22:26.268Z,98387.52
2023-02-20T19:27:28.644Z,98385.96
2023-02-20T19:32:31.403Z,98385.67
2023-02-20T19:37:34.379Z,98379.91
2023-02-20T19:42:36.914Z,98384.80
2023-02-20T19:47:38.955Z,98380.04
2023-02-20T19:52:42.502Z,98384.33
2023-02-20T19:57:44.465Z,98381.48
2023-02-20T20:02:54.835Z,98373.02
2023-02-20T20:07:57.107Z,98367.80
2023-02-20T20:12:59.640Z,98364.64
2023-02-20T20:18:02.667Z,98367.09
2023-02-20T20:23:05.777Z,98363.69
2023-02-20T20:28:09.446Z,98360.55
2023-02-20T20:33:11.636Z,98357.48
2023-02-20T20:38:16.727Z,98343.14
2023-02-20T20:43:18.622Z,98332.29
2023-02-20T20:48:20.664Z,98328.15
2023-02-20T20:53:22.655Z,98323.70
2023-02-20T20:58:24.641Z,98317.31
2023-02-20T21:03:27.275Z,98312.66
2023-02-20T21:08:33.322Z,98316.61
2023-02-20T21:13:35.344Z,98315.21
2023-02-20T21:18:37.928Z,98316.19
2023-02-20T21:23:45.228Z,98315.50
2023-02-20T21:28:47.769Z,98315.78
2023-02-20T21:33:52.023Z,98309.58
2023-02-20T21:38:54.669Z,98308.49
2023-02-20T21:44:15.726Z,98299.52
2023-02-20T21:49:18.166Z,98298.89
2023-02-20T21:54:25.070Z,98292.39
2023-02-20T21:59:27.811Z,98284.63
2023-02-20T22:04:31.308Z,98275.19
2023-02-20T22:09:53.879Z,98268.83
2023-02-20T22:15:14.690Z,98260.61
2023-02-20T22:20:35.699Z,98254.33
2023-02-20T22:25:56.822Z,98245.55
2023-02-20T22:31:21.420Z,98240.65
2023-02-20T22:36:43.104Z,98242.92
2023-02-20T22:42:04.382Z,98244.49
2023-02-20T22:47:26.482Z,98238.29
2023-02-20T22:52:47.499Z,98233.55
2023-02-20T22:58:08.307Z,98237.25
2023-02-20T23:03:30.261Z,98237.33
2023-02-20T23:08:51.415Z,98240.98
2023-02-20T23:14:12.026Z,98239.15
2023-02-20T23:19:33.250Z,98241.20
2023-02-20T23:24:54.583Z,98244.04
2023-02-20T23:30:15.965Z,98251.00
2023-02-20T23:35:37.519Z,98246.05
2023-02-20T23:40:58.242Z,98243.34
2023-02-20T23:46:19.884Z,98237.29
2023-02-20T23:51:41.403Z,98246.88
2023-02-20T23:57:02.263Z,98242.77
